• Join FlightAware (Why Join?)
  • Login
  • US Flag 
01:18AM EST


 

Airport Tracker/Info


-or-


 

Live Flight TrackerFlight Track Log ✈ AMF1324 ✈ 20-Mar-2014 ✈ KBGM - KBUF

Flight Track Log - Related Links

Times and Time Zones

All times are in EDT time to prevent confusion due to time zone crossing. See the AMF1324 flight status page for this flight to view local times or setup timezone preferences in your user account.

Time Position Orientation Groundspeed Altitude Reporting Facility
EDT Latitude Longitude Course Direction KTS MPH feet Rate Location/Type
08:58AM 42.2083 -76.0686 307° West 146 168 5,600  Level Cleveland Center
08:59AM 42.2269 -76.1022 307° West 113 130 7,400 1,680 Climbing Cleveland Center
09:00AM 42.2450 -76.1444 300° West 125 144 9,200 1,680 Climbing Cleveland Center
09:01AM 42.2658 -76.2011 296° West 135 155 11,000 1,380 Climbing Cleveland Center
09:02AM 42.2850 -76.2506 298° West 142 163 12,100 480 Climbing Cleveland Center
09:03AM 42.3067 -76.3094 296° West 162 186 12,000  Descending Cleveland Center
09:04AM 42.3297 -76.3717 297° West 176 203 12,100  Climbing Cleveland Center
09:05AM 42.3547 -76.4378 297° West 183 211 12,100  Level Cleveland Center
09:06AM 42.3792 -76.5003 298° West 184 212 12,100  Level Cleveland Center
09:07AM 42.4031 -76.5614 298° West 184 212 12,100  Level Cleveland Center
09:08AM 42.4256 -76.6233 296° West 185 213 12,100  Level Cleveland Center
09:09AM 42.4533 -76.6947 298° West 184 212 12,100  Level Cleveland Center
09:10AM 42.4756 -76.7564 296° West 184 212 12,100  Level Cleveland Center
09:11AM 42.4994 -76.8183 298° West 185 213 12,100  Level Cleveland Center
09:12AM 42.5225 -76.8800 297° West 185 213 12,100  Level Cleveland Center
09:13AM 42.5458 -76.9414 297° West 185 213 12,100  Level Cleveland Center
09:14AM 42.5656 -77.0047 293° West 185 213 12,100  Level Cleveland Center
09:15AM 42.5783 -77.0850 282° West 184 212 12,100  Level Cleveland Center
09:16AM 42.5925 -77.1536 286° West 185 213 12,100  Level Cleveland Center
09:18AM 42.6086 -77.2206 288° West 187 215 12,100  Level Cleveland Center
09:19AM 42.6244 -77.2858 288° West 186 214 12,100  Level Cleveland Center
09:20AM 42.6392 -77.3517 287° West 184 212 12,100  Level Cleveland Center
09:21AM 42.6569 -77.4297 287° West 183 211 12,100  Level Cleveland Center
09:22AM 42.6708 -77.4928 287° West 183 211 12,100  Level Cleveland Center
09:23AM 42.6853 -77.5569 287° West 181 208 12,100  Level Cleveland Center
09:24AM 42.6983 -77.6219 285° West 181 208 12,100  Level Cleveland Center
09:25AM 42.7131 -77.6833 288° West 179 206 12,100  Level Cleveland Center
09:26AM 42.7303 -77.7594 287° West 179 206 12,100  Level Cleveland Center
09:27AM 42.7447 -77.8233 287° West 179 206 12,100 -300 Level Cleveland Center
09:28AM 42.7586 -77.8878 286° West 179 206 11,600 -540 Descending Cleveland Center
09:29AM 42.7717 -77.9522 285° West 179 206 11,100 -300 Descending Cleveland Center
09:30AM 42.7847 -78.0147 286° West 173 199 11,000  Descending Cleveland Center
09:31AM 42.8011 -78.0869 287° West 169 194 11,100  Climbing Cleveland Center
09:32AM 42.8150 -78.1472 287° West 169 194 11,100 -420 Level Cleveland Center
09:33AM 42.8275 -78.2083 286° West 168 193 10,300 -1,020 Descending Cleveland Center
09:34AM 42.8408 -78.2697 287° West 172 198 9,000 -1,440 Descending Cleveland Center
09:35AM 42.8539 -78.3333 286° West 156 180 7,400 -1,620 Descending Cleveland Center
09:36AM 42.8672 -78.3894 288° West 152 175 5,700 -1,620 Descending Cleveland Center
09:37AM 42.8808 -78.4431 289° West 147 169 4,100 -840 Descending Cleveland Center
09:38AM 42.9322 -78.4517 353° North 172 198 4,000 -420 Descending Cleveland Center
09:39AM 42.9719 -78.4736 338° Northwest 154 177 3,300 -780 Descending Cleveland Center
09:40AM 43.0072 -78.4939 337° Northwest 150 173 2,500 -540 Descending Cleveland Center
09:41AM 43.0392 -78.5244 325° Northwest 149 171 2,300 -120 Descending Cleveland Center
09:42AM 43.0633 -78.5669 308° West 144 166 2,300 60 Level Cleveland Center
09:44AM 43.0189 -78.6281 225° Southwest 118 136 2,500 -60 Climbing Cleveland Center
09:45AM 43.0000 -78.6500 220° Southwest 111 128 2,200 -480 Descending Buffalo TRACON
09:46AM 42.9833 -78.6833 236° Southwest 99 114 1,700 -600 Descending Buffalo TRACON
09:47AM 42.9667 -78.7000 216° Southwest 105 121 1,100 -600 Descending Buffalo TRACON